createdAt,value
2023-03-17T00:01:11.097Z,23.00
2023-03-17T00:03:40.384Z,20.80
2023-03-17T00:06:08.310Z,22.43
2023-03-17T00:08:36.413Z,24.27
2023-03-17T00:11:04.096Z,21.30
2023-03-17T00:13:31.235Z,22.03
2023-03-17T00:16:03.439Z,23.30
2023-03-17T00:18:31.774Z,23.10
2023-03-17T00:20:58.995Z,23.17
2023-03-17T00:23:26.246Z,20.70
2023-03-17T00:25:54.277Z,21.67
2023-03-17T00:28:22.790Z,22.03
2023-03-17T00:30:50.609Z,23.13
2023-03-17T00:33:17.782Z,21.60
2023-03-17T00:35:46.645Z,20.90
2023-03-17T00:38:17.917Z,23.60
2023-03-17T00:43:12.688Z,19.97
2023-03-17T00:45:40.652Z,21.57
2023-03-17T00:48:13.898Z,19.20
2023-03-17T00:50:41.510Z,21.77
2023-03-17T00:53:11.559Z,21.73
2023-03-17T00:55:38.691Z,20.30
2023-03-17T00:58:18.507Z,21.93
2023-03-17T01:00:45.882Z,24.33
2023-03-17T01:03:13.495Z,21.27
2023-03-17T01:05:41.509Z,22.70
2023-03-17T01:08:09.216Z,23.47
2023-03-17T01:10:37.237Z,21.30
2023-03-17T01:13:05.334Z,23.70
2023-03-17T01:15:32.985Z,23.60
2023-03-17T01:18:02.798Z,21.13
2023-03-17T01:20:32.055Z,19.37
2023-03-17T01:22:59.710Z,21.83
2023-03-17T01:25:27.620Z,19.17
2023-03-17T01:27:57.679Z,19.77
2023-03-17T01:30:27.683Z,20.37
2023-03-17T01:32:55.792Z,21.20
2023-03-17T01:35:24.434Z,21.43
2023-03-17T01:37:51.718Z,24.53
2023-03-17T01:40:20.822Z,18.87
2023-03-17T01:43:13.969Z,23.67
2023-03-17T01:45:59.839Z,19.10
2023-03-17T01:48:29.112Z,21.33
2023-03-17T01:50:58.114Z,20.33
2023-03-17T01:53:25.509Z,23.33
2023-03-17T01:55:53.404Z,20.07
2023-03-17T01:58:23.086Z,19.67
2023-03-17T02:00:50.555Z,19.37
2023-03-17T02:03:17.984Z,22.77
2023-03-17T02:05:45.260Z,18.53
2023-03-17T02:08:13.954Z,22.30
2023-03-17T02:10:42.113Z,21.23
2023-03-17T02:13:11.585Z,19.07
2023-03-17T02:15:40.402Z,18.03
2023-03-17T02:18:08.219Z,19.10
2023-03-17T02:20:35.626Z,17.83
2023-03-17T02:23:04.154Z,19.90
2023-03-17T02:25:31.585Z,20.67
2023-03-17T02:28:01.748Z,18.03
2023-03-17T02:30:29.443Z,20.63
2023-03-17T02:32:56.817Z,20.03
2023-03-17T02:35:24.039Z,22.97
2023-03-17T02:37:51.207Z,20.23
2023-03-17T02:40:18.752Z,18.37
2023-03-17T02:42:46.696Z,20.17
2023-03-17T02:45:14.444Z,18.87
2023-03-17T02:47:42.626Z,18.17
2023-03-17T02:50:10.741Z,18.13
2023-03-17T02:52:37.842Z,17.03
2023-03-17T02:55:05.633Z,17.73
2023-03-17T02:57:32.776Z,18.13
2023-03-17T02:59:59.948Z,18.17
2023-03-17T03:02:27.119Z,17.17
2023-03-17T03:04:54.302Z,16.87
2023-03-17T03:07:22.821Z,19.13
2023-03-17T03:09:49.927Z,17.47
2023-03-17T03:12:17.018Z,17.40
2023-03-17T03:14:44.153Z,16.73
2023-03-17T03:17:11.426Z,15.23
2023-03-17T03:19:39.325Z,17.53
2023-03-17T03:22:06.557Z,16.67
2023-03-17T03:24:33.754Z,17.10
2023-03-17T03:27:00.944Z,15.93
2023-03-17T03:29:28.091Z,17.27
2023-03-17T03:31:55.258Z,16.47
2023-03-17T03:34:22.366Z,16.63
2023-03-17T03:36:49.487Z,15.87
2023-03-17T03:39:16.795Z,17.87
2023-03-17T03:41:43.904Z,19.30
2023-03-17T03:44:11.306Z,17.77
2023-03-17T03:46:38.454Z,18.93
2023-03-17T03:49:05.597Z,14.60
2023-03-17T03:51:32.845Z,13.43
2023-03-17T03:54:01.333Z,14.27
2023-03-17T03:56:28.508Z,15.23
2023-03-17T03:58:56.460Z,14.60
2023-03-17T04:01:23.612Z,13.53
2023-03-17T04:03:51.310Z,15.33
2023-03-17T04:06:18.425Z,14.93
2023-03-17T04:08:45.845Z,14.90
2023-03-17T04:11:12.981Z,17.67
2023-03-17T04:13:40.117Z,16.20
2023-03-17T04:16:07.489Z,19.47
2023-03-17T04:18:35.635Z,15.83
2023-03-17T04:21:02.876Z,19.23
2023-03-17T04:23:31.516Z,17.70
2023-03-17T04:25:59.092Z,17.93
2023-03-17T04:28:26.214Z,15.57
2023-03-17T04:30:53.313Z,17.03
2023-03-17T04:33:20.480Z,18.87
2023-03-17T04:35:48.125Z,20.03
2023-03-17T04:38:15.702Z,16.90
2023-03-17T04:40:42.807Z,19.37
2023-03-17T04:43:10.335Z,19.73
2023-03-17T04:45:37.541Z,17.67
2023-03-17T04:48:04.928Z,17.37
2023-03-17T04:50:33.315Z,18.07
2023-03-17T04:53:00.784Z,18.33
2023-03-17T04:55:28.119Z,16.87
2023-03-17T04:57:55.268Z,20.37
2023-03-17T05:00:22.471Z,22.63
2023-03-17T05:02:49.657Z,19.47
2023-03-17T05:05:16.785Z,17.70
2023-03-17T05:07:44.787Z,19.87
2023-03-17T05:10:12.636Z,16.63
2023-03-17T05:12:39.796Z,17.70
2023-03-17T05:15:07.242Z,17.60
2023-03-17T05:17:34.339Z,16.43
2023-03-17T05:20:01.483Z,17.83
2023-03-17T05:22:28.642Z,17.40
2023-03-17T05:24:55.920Z,18.37
2023-03-17T05:27:23.259Z,22.03
2023-03-17T05:29:50.424Z,20.57
2023-03-17T05:32:18.334Z,19.67
2023-03-17T05:34:46.298Z,15.73
2023-03-17T05:37:14.134Z,17.97
2023-03-17T05:39:42.066Z,17.87
2023-03-17T05:42:09.228Z,21.37
2023-03-17T05:44:36.427Z,19.93
2023-03-17T05:47:03.509Z,20.83
2023-03-17T05:49:30.886Z,18.07
2023-03-17T05:51:58.816Z,16.37
2023-03-17T05:54:25.968Z,17.63
2023-03-17T05:56:53.121Z,18.20
2023-03-17T05:59:20.587Z,17.40
2023-03-17T06:01:47.712Z,18.03
2023-03-17T06:04:15.375Z,17.33
2023-03-17T06:06:42.557Z,18.17
2023-03-17T06:09:09.688Z,16.40
2023-03-17T06:11:36.964Z,18.40
2023-03-17T06:14:04.388Z,16.53
2023-03-17T06:16:33.183Z,15.37
2023-03-17T06:19:00.506Z,11.93
2023-03-17T06:21:27.693Z,13.97
2023-03-17T06:23:54.833Z,16.07
2023-03-17T06:26:22.078Z,15.00
2023-03-17T06:28:49.221Z,10.77
2023-03-17T06:31:16.428Z,14.87
2023-03-17T06:33:43.827Z,14.97
2023-03-17T06:36:11.081Z,10.60
2023-03-17T06:38:39.303Z,10.93
2023-03-17T06:41:06.922Z,13.10
2023-03-17T06:43:34.068Z,11.67
2023-03-17T06:46:01.412Z,12.63
2023-03-17T06:48:28.667Z,11.47
2023-03-17T06:50:56.228Z,10.17
2023-03-17T06:53:23.320Z,13.63
2023-03-17T06:55:50.464Z,12.37
2023-03-17T06:58:17.815Z,10.27
2023-03-17T07:00:45.505Z,11.77
2023-03-17T07:03:12.722Z,9.60
2023-03-17T07:05:40.253Z,11.73
2023-03-17T07:08:07.458Z,12.00
2023-03-17T07:10:34.787Z,14.30
2023-03-17T07:13:02.450Z,13.20
2023-03-17T07:15:34.669Z,11.37
2023-03-17T07:18:01.943Z,13.00
2023-03-17T07:20:29.118Z,11.73
2023-03-17T07:22:56.525Z,12.75
2023-03-17T07:25:23.814Z,12.15
2023-03-17T07:27:51.967Z,11.98
2023-03-17T07:30:19.433Z,13.50
2023-03-17T07:32:47.263Z,12.68
2023-03-17T07:35:15.535Z,13.65
2023-03-17T07:37:42.929Z,19.27
2023-03-17T07:40:10.882Z,12.45
2023-03-17T07:42:38.745Z,11.98
2023-03-17T07:45:06.213Z,15.15
2023-03-17T07:47:33.332Z,11.77
2023-03-17T07:50:00.610Z,11.13
2023-03-17T07:52:27.825Z,11.57
2023-03-17T07:54:55.892Z,15.20
2023-03-17T07:57:23.226Z,12.07
2023-03-17T07:59:50.749Z,13.77
2023-03-17T08:02:19.485Z,15.70
2023-03-17T08:04:46.733Z,16.67
2023-03-17T08:07:15.509Z,17.45
2023-03-17T08:09:42.709Z,14.07
2023-03-17T08:12:10.077Z,10.15
2023-03-17T08:14:37.232Z,13.05
2023-03-17T08:17:04.876Z,11.45
2023-03-17T08:19:32.123Z,13.95
2023-03-17T08:21:59.369Z,9.95
2023-03-17T08:24:27.028Z,13.45
2023-03-17T08:26:54.222Z,13.20
2023-03-17T08:29:21.352Z,12.50
2023-03-17T08:31:48.580Z,13.70
2023-03-17T08:34:16.516Z,11.30
2023-03-17T08:36:43.777Z,12.45
2023-03-17T08:39:10.948Z,8.70
2023-03-17T08:41:38.556Z,9.32
2023-03-17T08:44:05.702Z,10.10
2023-03-17T08:46:33.555Z,7.75
2023-03-17T08:49:01.776Z,9.25
2023-03-17T08:51:30.826Z,9.35
2023-03-17T08:53:58.570Z,9.07
2023-03-17T08:56:26.030Z,8.15
2023-03-17T08:58:53.559Z,8.52
2023-03-17T09:01:21.241Z,7.47
2023-03-17T09:03:49.556Z,8.80
2023-03-17T09:06:16.940Z,11.48
2023-03-17T09:08:49.679Z,9.45
2023-03-17T09:11:18.642Z,7.25
2023-03-17T09:13:46.518Z,9.23
2023-03-17T09:16:14.751Z,7.50
2023-03-17T09:18:42.077Z,9.38
2023-03-17T09:21:09.811Z,11.35
2023-03-17T09:23:36.932Z,12.00
2023-03-17T09:26:04.128Z,10.77
2023-03-17T09:28:31.813Z,8.93
2023-03-17T09:31:03.430Z,8.23
2023-03-17T09:33:31.000Z,8.10
2023-03-17T09:35:58.385Z,7.50
2023-03-17T09:38:26.317Z,9.48
2023-03-17T09:40:53.414Z,10.30
2023-03-17T09:43:24.015Z,10.13
2023-03-17T09:45:52.216Z,10.82
2023-03-17T09:48:26.137Z,8.77
2023-03-17T09:51:04.865Z,9.45
2023-03-17T09:53:35.842Z,8.45
2023-03-17T09:56:06.595Z,9.07
2023-03-17T09:58:34.446Z,8.55
2023-03-17T10:01:05.328Z,9.23
2023-03-17T10:03:33.008Z,10.23
2023-03-17T10:06:09.988Z,11.27
2023-03-17T10:08:43.859Z,8.40
2023-03-17T10:11:25.590Z,10.70
2023-03-17T10:13:55.786Z,11.52
2023-03-17T10:16:28.336Z,9.40
2023-03-17T10:19:01.699Z,10.27
2023-03-17T10:21:34.396Z,9.85
2023-03-17T10:24:03.684Z,7.63
2023-03-17T10:26:45.114Z,12.38
2023-03-17T10:29:17.563Z,7.70
2023-03-17T10:31:45.130Z,9.90
2023-03-17T10:34:39.593Z,7.95
2023-03-17T10:37:06.851Z,10.18
2023-03-17T10:39:42.239Z,9.00
2023-03-17T10:42:15.532Z,7.35
2023-03-17T10:44:44.765Z,9.52
2023-03-17T10:47:21.734Z,12.05
2023-03-17T10:49:49.495Z,10.10
2023-03-17T10:52:21.128Z,8.73
2023-03-17T10:54:51.287Z,8.95
2023-03-17T10:57:18.547Z,9.20
2023-03-17T10:59:53.972Z,11.70
2023-03-17T11:02:24.040Z,9.52
2023-03-17T11:04:54.566Z,8.82
2023-03-17T11:07:27.176Z,9.77
2023-03-17T11:09:58.348Z,9.68
2023-03-17T11:12:41.431Z,7.68
2023-03-17T11:15:12.018Z,8.48
2023-03-17T11:17:46.460Z,8.88
2023-03-17T11:20:16.937Z,7.78
2023-03-17T11:22:50.083Z,9.73
2023-03-17T11:25:20.944Z,9.88
2023-03-17T11:27:52.647Z,7.05
2023-03-17T11:30:29.499Z,9.68
2023-03-17T11:33:00.389Z,9.48
2023-03-17T11:35:43.378Z,9.68
2023-03-17T11:38:22.869Z,9.60
2023-03-17T11:41:02.182Z,7.63
2023-03-17T11:43:51.560Z,9.77
2023-03-17T11:46:28.918Z,7.60
2023-03-17T11:49:14.844Z,10.98
2023-03-17T11:51:49.098Z,7.95
2023-03-17T11:54:36.456Z,8.55
2023-03-17T11:57:05.917Z,9.77
2023-03-17T11:59:39.258Z,11.02
2023-03-17T12:02:25.198Z,9.60
2023-03-17T12:04:57.499Z,10.20
2023-03-17T12:07:33.302Z,9.02
2023-03-17T12:10:15.820Z,10.48
2023-03-17T12:12:48.730Z,8.82
2023-03-17T12:15:27.660Z,15.35
2023-03-17T12:17:58.052Z,9.13
2023-03-17T12:20:41.030Z,8.75
2023-03-17T12:23:17.154Z,7.90
2023-03-17T12:25:59.328Z,19.65
2023-03-17T12:28:28.666Z,11.68
2023-03-17T12:31:14.083Z,13.55
2023-03-17T12:33:44.750Z,9.13
2023-03-17T12:36:15.221Z,8.65
2023-03-17T12:38:45.375Z,6.82
2023-03-17T12:41:19.978Z,7.47
2023-03-17T12:43:53.297Z,10.45
2023-03-17T12:46:35.491Z,9.93
2023-03-17T12:49:11.862Z,9.45
2023-03-17T12:52:02.631Z,8.50
2023-03-17T12:54:31.416Z,9.70
2023-03-17T12:57:02.969Z,10.63
2023-03-17T12:59:31.255Z,9.43
2023-03-17T13:02:06.254Z,8.07
2023-03-17T13:04:35.606Z,8.20
2023-03-17T13:07:06.371Z,7.90
2023-03-17T13:09:33.909Z,9.60
2023-03-17T13:12:02.158Z,8.07
2023-03-17T13:14:41.796Z,8.90
2023-03-17T13:17:19.677Z,9.38
2023-03-17T13:20:05.502Z,11.05
2023-03-17T13:22:37.924Z,10.15
2023-03-17T13:25:14.314Z,8.48
2023-03-17T13:27:43.847Z,7.80
2023-03-17T13:30:37.728Z,10.27
2023-03-17T13:33:16.450Z,8.30
2023-03-17T13:36:03.937Z,11.80
2023-03-17T13:39:04.914Z,7.93
2023-03-17T13:41:40.131Z,9.90
2023-03-17T13:44:07.795Z,9.82
2023-03-17T13:46:39.302Z,8.10
2023-03-17T13:49:18.834Z,7.80
2023-03-17T13:52:02.635Z,8.07
2023-03-17T13:54:32.259Z,10.38
2023-03-17T13:57:17.974Z,7.95
2023-03-17T13:59:51.181Z,8.63
2023-03-17T14:02:20.399Z,9.95
2023-03-17T14:04:55.701Z,9.55
2023-03-17T14:07:24.482Z,9.07
2023-03-17T14:09:55.547Z,7.80
2023-03-17T14:12:25.470Z,9.38
2023-03-17T14:15:25.338Z,8.23
2023-03-17T14:17:59.336Z,8.00
2023-03-17T14:20:28.358Z,9.13
2023-03-17T14:23:03.138Z,8.40
2023-03-17T14:25:37.626Z,8.10
2023-03-17T14:28:09.943Z,8.43
2023-03-17T14:30:38.164Z,7.70
2023-03-17T14:33:23.474Z,8.18
2023-03-17T14:35:54.629Z,9.63
2023-03-17T14:38:24.558Z,10.57
2023-03-17T14:40:52.494Z,9.00
2023-03-17T14:43:19.676Z,8.57
2023-03-17T14:45:49.655Z,6.93
2023-03-17T14:48:18.230Z,11.02
2023-03-17T14:50:53.793Z,14.30
2023-03-17T14:53:22.475Z,8.50
2023-03-17T14:55:49.579Z,10.80
2023-03-17T14:58:24.924Z,9.32
2023-03-17T15:00:58.217Z,9.57
2023-03-17T15:03:28.686Z,10.80
2023-03-17T15:06:05.523Z,8.35
2023-03-17T15:08:36.494Z,13.40
2023-03-17T15:11:04.939Z,14.32
2023-03-17T15:13:34.542Z,12.45
2023-03-17T15:16:07.288Z,10.98
2023-03-17T15:18:34.429Z,8.25
2023-03-17T15:21:01.578Z,7.53
2023-03-17T15:23:29.766Z,10.52
2023-03-17T15:25:57.364Z,8.65
2023-03-17T15:28:31.624Z,9.20
2023-03-17T15:31:06.055Z,6.93
2023-03-17T15:33:36.036Z,10.38
2023-03-17T15:36:03.303Z,8.35
2023-03-17T15:38:30.483Z,8.90
2023-03-17T15:40:57.999Z,11.93
2023-03-17T15:43:25.407Z,10.27
2023-03-17T15:45:59.102Z,8.00
2023-03-17T15:48:27.678Z,8.52
2023-03-17T15:50:56.628Z,6.80
2023-03-17T15:53:23.756Z,8.45
2023-03-17T15:55:51.180Z,6.55
2023-03-17T15:58:18.757Z,7.85
2023-03-17T16:00:49.222Z,7.72
2023-03-17T16:03:19.428Z,8.07
2023-03-17T16:05:46.584Z,7.22
2023-03-17T16:08:14.685Z,10.38
2023-03-17T16:10:42.274Z,9.40
2023-03-17T16:13:09.595Z,11.15
2023-03-17T16:15:41.546Z,10.18
2023-03-17T16:18:12.485Z,11.33
2023-03-17T16:20:41.626Z,8.93
2023-03-17T16:23:12.918Z,8.03
2023-03-17T16:25:40.056Z,14.37
2023-03-17T16:28:17.737Z,12.30
2023-03-17T16:30:46.169Z,10.37
2023-03-17T16:33:16.904Z,13.30
2023-03-17T16:35:44.324Z,15.33
2023-03-17T16:38:13.042Z,11.90
2023-03-17T16:40:40.547Z,12.67
2023-03-17T16:43:24.428Z,14.67
2023-03-17T16:45:53.109Z,10.03
2023-03-17T16:48:20.314Z,16.80
2023-03-17T16:50:47.672Z,12.47
2023-03-17T16:53:14.810Z,11.40
2023-03-17T16:55:42.440Z,16.97
2023-03-17T16:58:20.700Z,18.83
2023-03-17T17:00:48.572Z,11.70
2023-03-17T17:03:15.954Z,13.63
2023-03-17T17:05:43.835Z,11.07
2023-03-17T17:08:11.122Z,14.17
2023-03-17T17:10:38.881Z,13.90
2023-03-17T17:13:07.746Z,11.97
2023-03-17T17:15:36.146Z,20.23
2023-03-17T17:18:08.408Z,10.87
2023-03-17T17:20:38.547Z,11.23
2023-03-17T17:23:06.829Z,10.53
2023-03-17T17:25:34.192Z,11.40
2023-03-17T17:28:01.381Z,9.50
2023-03-17T17:30:29.742Z,8.93
2023-03-17T17:32:58.293Z,9.83
2023-03-17T17:35:26.392Z,9.10
2023-03-17T17:37:53.727Z,9.70
2023-03-17T17:40:22.103Z,11.50
2023-03-17T17:42:49.206Z,9.30
2023-03-17T17:45:16.902Z,10.10
2023-03-17T17:47:44.488Z,12.17
2023-03-17T17:50:16.179Z,12.13
2023-03-17T17:52:43.299Z,8.40
2023-03-17T17:55:10.408Z,8.13
2023-03-17T17:57:37.510Z,8.80
2023-03-17T18:00:06.370Z,9.87
2023-03-17T18:02:33.538Z,11.53
2023-03-17T18:05:01.118Z,18.27
2023-03-17T18:07:28.259Z,24.83
2023-03-17T18:09:55.422Z,29.37
2023-03-17T18:12:22.530Z,25.60
2023-03-17T18:14:49.651Z,17.20
2023-03-17T18:17:21.689Z,14.17
2023-03-17T18:19:53.365Z,13.23
2023-03-17T18:22:21.518Z,12.47
2023-03-17T18:24:49.217Z,10.47
2023-03-17T18:27:16.947Z,11.37
2023-03-17T18:29:44.869Z,13.73
2023-03-17T18:32:12.408Z,11.87
2023-03-17T18:34:43.393Z,12.63
2023-03-17T18:37:12.597Z,45.53
2023-03-17T18:39:41.012Z,15.10
2023-03-17T18:42:09.313Z,17.33
2023-03-17T18:44:36.436Z,16.57
2023-03-17T18:47:04.163Z,18.23
2023-03-17T18:49:31.305Z,19.30
2023-03-17T18:51:59.551Z,15.63
2023-03-17T18:54:27.702Z,14.63
2023-03-17T18:56:55.134Z,17.07
2023-03-17T18:59:22.266Z,21.57
2023-03-17T19:01:49.467Z,15.40
2023-03-17T19:04:16.783Z,13.63
2023-03-17T19:06:43.987Z,11.97
2023-03-17T19:09:11.563Z,13.00
2023-03-17T19:11:39.618Z,10.93
2023-03-17T19:14:07.205Z,17.67
2023-03-17T19:16:34.536Z,14.83
2023-03-17T19:19:01.776Z,12.90
2023-03-17T19:21:29.601Z,14.27
2023-03-17T19:23:59.156Z,12.00
2023-03-17T19:26:27.068Z,12.23
2023-03-17T19:28:56.299Z,9.60
2023-03-17T19:31:24.766Z,12.90
2023-03-17T19:33:52.080Z,10.93
2023-03-17T19:36:19.300Z,10.93
2023-03-17T19:38:46.478Z,13.27
2023-03-17T19:41:15.595Z,9.83
2023-03-17T19:43:42.838Z,11.33
2023-03-17T19:46:13.184Z,11.23
2023-03-17T19:48:40.778Z,15.53
2023-03-17T19:51:08.106Z,13.07
2023-03-17T19:53:35.524Z,10.27
2023-03-17T19:56:02.659Z,12.17
2023-03-17T19:58:29.824Z,10.17
2023-03-17T20:00:57.028Z,11.80
2023-03-17T20:03:26.150Z,18.13
2023-03-17T20:05:53.813Z,12.23
2023-03-17T20:08:22.417Z,15.13
2023-03-17T20:10:53.907Z,13.53
2023-03-17T20:13:21.859Z,18.57
2023-03-17T20:15:50.133Z,16.80
2023-03-17T20:18:17.381Z,12.93
2023-03-17T20:20:49.414Z,16.17
2023-03-17T20:23:16.882Z,13.27
2023-03-17T20:25:44.351Z,13.97
2023-03-17T20:28:11.993Z,16.33
2023-03-17T20:30:40.354Z,15.87
2023-03-17T20:33:09.668Z,19.20
2023-03-17T20:35:38.824Z,17.00
2023-03-17T20:38:06.081Z,20.27
2023-03-17T20:40:33.422Z,16.17
2023-03-17T20:43:00.970Z,20.07
2023-03-17T20:45:28.169Z,17.83
2023-03-17T20:47:56.020Z,18.83
2023-03-17T20:50:23.274Z,18.73
2023-03-17T20:52:50.646Z,18.17
2023-03-17T20:55:19.730Z,17.27
2023-03-17T20:57:47.551Z,20.53
2023-03-17T21:00:20.171Z,17.90
2023-03-17T21:02:51.123Z,21.17
2023-03-17T21:05:20.031Z,19.80
2023-03-17T21:07:47.923Z,18.00
2023-03-17T21:10:15.619Z,18.40
2023-03-17T21:12:44.909Z,19.30
2023-03-17T21:15:13.005Z,16.17
2023-03-17T21:17:41.975Z,19.30
2023-03-17T21:20:10.945Z,18.07
2023-03-17T21:22:39.987Z,18.07
2023-03-17T21:25:08.665Z,16.97
2023-03-17T21:27:39.384Z,15.33
2023-03-17T21:30:08.053Z,15.77
2023-03-17T21:32:35.281Z,18.37
2023-03-17T21:35:02.467Z,22.27
2023-03-17T21:37:29.592Z,25.83
2023-03-17T21:39:56.780Z,20.73
2023-03-17T21:42:24.716Z,18.70
2023-03-17T21:44:52.331Z,23.13
2023-03-17T21:47:19.883Z,18.03
2023-03-17T21:49:47.104Z,19.73
2023-03-17T21:52:15.093Z,18.57
2023-03-17T21:54:42.751Z,21.03
2023-03-17T21:57:11.834Z,21.10
2023-03-17T21:59:40.004Z,27.73
2023-03-17T22:02:07.353Z,19.40
2023-03-17T22:04:34.470Z,17.73
2023-03-17T22:07:04.398Z,22.93
2023-03-17T22:09:31.682Z,20.83
2023-03-17T22:11:59.394Z,18.17
2023-03-17T22:14:26.975Z,23.43
2023-03-17T22:16:54.224Z,21.60
2023-03-17T22:19:21.577Z,18.10
2023-03-17T22:21:48.771Z,19.47
2023-03-17T22:24:16.023Z,20.27
2023-03-17T22:26:43.190Z,20.60
2023-03-17T22:29:10.537Z,20.13
2023-03-17T22:31:37.675Z,19.43
2023-03-17T22:34:04.923Z,21.47
2023-03-17T22:36:32.073Z,19.70
2023-03-17T22:38:59.507Z,19.67
2023-03-17T22:41:28.103Z,17.43
2023-03-17T22:43:55.620Z,18.07
2023-03-17T22:46:22.937Z,18.37
2023-03-17T22:48:50.824Z,19.50
2023-03-17T22:51:22.509Z,16.73
2023-03-17T22:53:50.248Z,17.87
2023-03-17T22:56:18.033Z,18.37
2023-03-17T22:58:45.710Z,19.77
2023-03-17T23:01:13.515Z,20.20
2023-03-17T23:03:40.840Z,19.87
2023-03-17T23:06:08.635Z,19.23
2023-03-17T23:08:36.777Z,16.37
2023-03-17T23:11:05.941Z,26.07
2023-03-17T23:13:33.161Z,20.30
2023-03-17T23:16:00.447Z,18.40
2023-03-17T23:18:27.780Z,17.57
2023-03-17T23:20:54.940Z,23.30
2023-03-17T23:23:22.074Z,20.03
2023-03-17T23:25:49.178Z,19.10
2023-03-17T23:28:16.413Z,20.03
2023-03-17T23:30:45.746Z,21.93
2023-03-17T23:33:13.463Z,21.13
2023-03-17T23:35:40.781Z,16.20
2023-03-17T23:38:08.726Z,18.47
2023-03-17T23:40:36.350Z,21.93
2023-03-17T23:43:05.492Z,50.50
2023-03-17T23:45:34.243Z,31.07
2023-03-17T23:48:01.677Z,25.83
2023-03-17T23:50:28.813Z,25.73
2023-03-17T23:52:56.129Z,29.93
2023-03-17T23:55:23.244Z,22.00
2023-03-17T23:57:50.756Z,21.80
